createdAt,value
2023-03-28T00:01:13.036Z,1.30
2023-03-28T00:03:41.378Z,1.30
2023-03-28T00:06:12.599Z,1.30
2023-03-28T00:08:41.602Z,1.20
2023-03-28T00:11:18.752Z,1.20
2023-03-28T00:13:47.605Z,1.20
2023-03-28T00:16:16.554Z,1.20
2023-03-28T00:18:44.920Z,1.20
2023-03-28T00:21:25.681Z,1.20
2023-03-28T00:23:55.518Z,1.10
2023-03-28T00:26:26.843Z,1.10
2023-03-28T00:28:55.880Z,1.10
2023-03-28T00:31:25.340Z,1.10
2023-03-28T00:33:54.129Z,1.10
2023-03-28T00:36:26.288Z,1.10
2023-03-28T00:38:55.154Z,1.10
2023-03-28T00:41:31.176Z,1.00
2023-03-28T00:44:01.397Z,1.00
2023-03-28T00:46:33.926Z,1.00
2023-03-28T00:49:07.285Z,1.00
2023-03-28T00:51:39.584Z,0.90
2023-03-28T00:54:12.097Z,0.90
2023-03-28T00:56:47.275Z,0.90
2023-03-28T00:59:19.978Z,0.90
2023-03-28T01:01:49.151Z,0.90
2023-03-28T01:04:22.148Z,0.80
2023-03-28T01:06:55.643Z,0.80
2023-03-28T01:09:25.730Z,0.90
2023-03-28T01:11:59.009Z,0.80
2023-03-28T01:14:30.422Z,0.90
2023-03-28T01:17:01.055Z,0.90
2023-03-28T01:19:47.873Z,0.90
2023-03-28T01:23:03.908Z,0.90
2023-03-28T01:26:18.043Z,0.80
2023-03-28T01:29:30.413Z,0.80
2023-03-28T01:32:53.767Z,0.70
2023-03-28T01:36:34.692Z,0.70
2023-03-28T01:39:12.796Z,0.70
2023-03-28T01:41:48.469Z,0.60
2023-03-28T01:44:27.975Z,0.60
2023-03-28T01:47:03.263Z,0.60
2023-03-28T01:49:40.155Z,0.50
2023-03-28T01:52:18.921Z,0.50
2023-03-28T01:54:56.539Z,0.50
2023-03-28T01:57:30.410Z,0.50
2023-03-28T02:00:12.846Z,0.50
2023-03-28T02:03:05.874Z,0.50
2023-03-28T02:05:42.965Z,0.50
2023-03-28T02:08:16.679Z,0.60
2023-03-28T02:10:52.810Z,0.60
2023-03-28T02:13:52.009Z,0.50
2023-03-28T02:16:43.215Z,0.50
2023-03-28T02:19:40.538Z,0.50
2023-03-28T02:22:53.306Z,0.40
2023-03-28T02:25:41.558Z,0.40
2023-03-28T02:28:27.070Z,0.40
2023-03-28T02:31:17.258Z,0.30
2023-03-28T02:33:48.936Z,0.30
2023-03-28T02:36:35.204Z,0.20
2023-03-28T02:39:31.874Z,0.20
2023-03-28T02:42:45.566Z,0.10
2023-03-28T02:45:39.409Z,0.10
2023-03-28T02:48:25.363Z,0.10
2023-03-28T02:51:06.253Z,0.00
2023-03-28T02:53:44.593Z,0.00
2023-03-28T02:56:19.237Z,0.00
2023-03-28T02:59:20.791Z,0.00
2023-03-28T03:01:50.443Z,-0.10
2023-03-28T03:04:18.903Z,0.00
2023-03-28T03:06:48.333Z,-0.10
2023-03-28T03:09:17.684Z,-0.10
2023-03-28T03:11:45.846Z,-0.10
2023-03-28T03:14:14.098Z,-0.20
2023-03-28T03:16:43.703Z,-0.20
2023-03-28T03:19:14.022Z,-0.20
2023-03-28T03:21:42.147Z,-0.30
2023-03-28T03:24:10.781Z,-0.30
2023-03-28T03:26:43.796Z,-0.40
2023-03-28T03:29:17.306Z,-0.40
2023-03-28T03:31:46.784Z,-0.50
2023-03-28T03:34:41.383Z,-0.50
2023-03-28T03:37:10.196Z,-0.50
2023-03-28T03:39:38.534Z,-0.50
2023-03-28T03:42:06.993Z,-0.50
2023-03-28T03:44:35.187Z,-0.60
2023-03-28T03:47:03.475Z,-0.60
2023-03-28T03:49:31.781Z,-0.60
2023-03-28T03:52:06.520Z,-0.60
2023-03-28T03:54:36.201Z,-0.60
2023-03-28T03:57:06.313Z,-0.60
2023-03-28T03:59:34.959Z,-0.60
2023-03-28T04:02:03.342Z,-0.60
2023-03-28T04:04:41.393Z,-0.60
2023-03-28T04:07:20.854Z,-0.50
2023-03-28T04:09:51.605Z,-0.50
2023-03-28T04:12:19.931Z,-0.50
2023-03-28T04:14:51.133Z,-0.50
2023-03-28T04:17:44.003Z,-0.50
2023-03-28T04:20:15.943Z,-0.50
2023-03-28T04:23:11.670Z,-0.60
2023-03-28T04:25:42.435Z,-0.60
2023-03-28T04:28:16.300Z,-0.60
2023-03-28T04:31:01.127Z,-0.70
2023-03-28T04:33:50.110Z,-0.70
2023-03-28T04:36:22.584Z,-0.70
2023-03-28T04:39:02.977Z,-0.80
2023-03-28T04:41:55.499Z,-0.80
2023-03-28T04:44:23.999Z,-0.90
2023-03-28T04:47:00.454Z,-0.90
2023-03-28T04:49:28.668Z,-0.90
2023-03-28T04:51:56.964Z,-0.90
2023-03-28T04:54:26.978Z,-1.00
2023-03-28T04:57:05.896Z,-1.00
2023-03-28T04:59:44.142Z,-1.00
2023-03-28T05:02:18.553Z,-1.00
2023-03-28T05:05:01.098Z,-1.00
2023-03-28T05:07:29.518Z,-1.10
2023-03-28T05:09:59.399Z,-1.10
2023-03-28T05:12:34.787Z,-1.10
2023-03-28T05:15:06.429Z,-1.10
2023-03-28T05:17:43.331Z,-1.10
2023-03-28T05:20:22.645Z,-1.20
2023-03-28T05:22:55.895Z,-1.20
2023-03-28T05:25:26.874Z,-1.20
2023-03-28T05:27:56.951Z,-1.20
2023-03-28T05:30:26.389Z,-1.10
2023-03-28T05:32:58.323Z,-1.10
2023-03-28T05:35:27.344Z,-1.10
2023-03-28T05:37:55.760Z,-1.10
2023-03-28T05:40:24.064Z,-1.10
2023-03-28T05:42:53.752Z,-1.00
2023-03-28T05:45:23.223Z,-1.00
2023-03-28T05:47:54.475Z,-0.90
2023-03-28T05:53:35.375Z,-0.70
2023-03-28T05:59:06.285Z,-0.50
2023-03-28T06:01:43.069Z,-0.40
2023-03-28T06:04:15.016Z,-0.20
2023-03-28T06:06:52.522Z,0.20
2023-03-28T06:10:06.321Z,0.60
2023-03-28T06:12:38.710Z,1.20
2023-03-28T06:15:13.292Z,1.70
2023-03-28T06:17:49.142Z,2.20
2023-03-28T06:20:35.936Z,2.80
2023-03-28T06:23:07.359Z,3.30
2023-03-28T06:28:54.276Z,4.40
2023-03-28T06:32:07.613Z,5.10
2023-03-28T06:34:45.236Z,5.70
2023-03-28T06:37:23.070Z,6.30
2023-03-28T06:40:05.292Z,6.90
2023-03-28T06:42:50.889Z,7.50
2023-03-28T06:45:45.193Z,8.00
2023-03-28T06:48:19.672Z,8.40
2023-03-28T06:51:19.397Z,8.80
2023-03-28T06:53:51.153Z,9.30
2023-03-28T06:56:27.936Z,9.70
2023-03-28T06:59:01.216Z,10.20
2023-03-28T07:01:35.209Z,10.70
2023-03-28T07:04:15.969Z,11.00
2023-03-28T07:06:50.189Z,11.70
2023-03-28T07:09:21.251Z,12.30
2023-03-28T07:11:58.902Z,12.80
2023-03-28T07:14:30.825Z,13.30
2023-03-28T07:17:01.430Z,13.70
2023-03-28T07:19:36.531Z,14.20
2023-03-28T07:22:09.173Z,14.10
2023-03-28T07:24:43.262Z,13.80
2023-03-28T07:27:17.252Z,14.40
2023-03-28T07:29:55.205Z,15.00
2023-03-28T07:36:12.596Z,15.10
2023-03-28T07:38:41.946Z,16.10
2023-03-28T07:41:10.831Z,16.50
2023-03-28T07:43:40.158Z,17.20
2023-03-28T07:46:13.557Z,16.60
2023-03-28T07:49:01.800Z,16.60
2023-03-28T07:51:43.382Z,17.30
2023-03-28T07:58:14.079Z,17.90
2023-03-28T08:00:45.815Z,18.90
2023-03-28T08:03:37.410Z,19.70
2023-03-28T08:06:20.144Z,20.10
2023-03-28T08:08:58.998Z,20.40
2023-03-28T08:11:36.431Z,20.80
2023-03-28T08:30:58.077Z,20.70
2023-03-28T08:33:29.061Z,21.30
2023-03-28T08:35:59.688Z,21.80
2023-03-28T08:38:29.161Z,21.80
2023-03-28T08:41:05.537Z,21.00
2023-03-28T08:44:23.215Z,21.60
2023-03-28T08:47:00.527Z,22.10
2023-03-28T08:50:02.178Z,22.40
2023-03-28T08:52:34.350Z,22.00
2023-03-28T09:07:18.794Z,20.80
2023-03-28T09:10:03.933Z,20.60
2023-03-28T09:13:02.930Z,20.20
2023-03-28T09:15:59.474Z,20.40
2023-03-28T09:18:55.052Z,19.30
2023-03-28T09:21:34.572Z,18.40
2023-03-28T09:24:40.854Z,18.20
2023-03-28T09:30:33.502Z,18.30
2023-03-28T09:33:13.581Z,19.60
2023-03-28T09:35:43.800Z,18.10
2023-03-28T09:38:22.306Z,18.10
2023-03-28T09:40:57.394Z,18.20
2023-03-28T09:43:48.884Z,19.70
2023-03-28T09:46:45.197Z,20.90
2023-03-28T09:49:19.634Z,21.60
2023-03-28T09:51:57.300Z,22.60
2023-03-28T09:54:30.955Z,22.30
2023-03-28T09:57:04.248Z,22.40
2023-03-28T09:59:50.756Z,22.10
2023-03-28T10:02:29.647Z,23.50
2023-03-28T10:05:02.878Z,24.80
2023-03-28T10:07:45.217Z,25.20
2023-03-28T10:10:41.766Z,25.10
2023-03-28T10:13:19.610Z,23.20
2023-03-28T10:15:51.901Z,22.00
2023-03-28T10:18:49.891Z,21.30
2023-03-28T10:21:27.799Z,20.30
2023-03-28T10:24:07.712Z,20.80
2023-03-28T10:26:37.710Z,20.90
2023-03-28T10:29:09.217Z,21.20
2023-03-28T10:31:41.589Z,21.40
2023-03-28T10:34:36.383Z,22.10
2023-03-28T10:37:27.240Z,22.90
2023-03-28T10:40:29.947Z,22.70
2023-03-28T10:43:17.142Z,23.00
2023-03-28T10:46:12.236Z,22.90
2023-03-28T10:49:03.024Z,23.30
2023-03-28T10:51:33.426Z,24.50
2023-03-28T10:54:46.970Z,25.50
2023-03-28T10:57:35.744Z,25.30
2023-03-28T11:00:12.363Z,24.70
2023-03-28T11:06:32.608Z,23.90
2023-03-28T11:13:06.909Z,22.80
2023-03-28T11:15:48.805Z,22.20
2023-03-28T11:18:41.960Z,22.20
2023-03-28T11:21:37.161Z,22.40
2023-03-28T11:24:26.905Z,23.30
2023-03-28T11:27:24.447Z,23.30
2023-03-28T11:30:19.611Z,23.10
2023-03-28T11:33:05.505Z,23.20
2023-03-28T11:35:39.587Z,23.00
2023-03-28T11:38:22.439Z,22.50
2023-03-28T11:40:56.543Z,22.10
2023-03-28T11:43:47.571Z,22.20
2023-03-28T11:46:23.969Z,22.70
2023-03-28T11:48:59.247Z,22.90
2023-03-28T11:55:41.768Z,22.90
2023-03-28T11:58:26.110Z,21.40
2023-03-28T12:01:03.470Z,21.60
2023-03-28T12:03:42.730Z,21.90
2023-03-28T12:06:18.557Z,22.40
2023-03-28T12:08:54.395Z,22.00
2023-03-28T12:11:35.567Z,22.30
2023-03-28T12:14:27.699Z,22.40
2023-03-28T12:17:01.534Z,22.30
2023-03-28T12:19:39.093Z,22.30
2023-03-28T12:22:26.635Z,22.70
2023-03-28T12:28:06.150Z,22.40
2023-03-28T12:30:40.409Z,23.10
2023-03-28T12:33:20.192Z,22.40
2023-03-28T12:36:08.566Z,22.10
2023-03-28T12:38:47.564Z,22.40
2023-03-28T12:41:28.805Z,22.30
2023-03-28T12:44:01.728Z,22.10
2023-03-28T12:46:46.487Z,21.70
2023-03-28T12:49:33.833Z,21.50
2023-03-28T12:52:09.553Z,21.20
2023-03-28T12:54:58.321Z,21.80
2023-03-28T12:57:46.457Z,21.80
2023-03-28T13:00:41.410Z,22.30
2023-03-28T13:03:51.191Z,22.60
2023-03-28T13:06:32.805Z,21.70
2023-03-28T13:14:09.862Z,21.20
2023-03-28T13:16:48.608Z,21.40
2023-03-28T13:19:20.198Z,21.10
2023-03-28T13:21:52.537Z,21.10
2023-03-28T13:24:32.329Z,21.20
2023-03-28T13:27:02.340Z,20.70
2023-03-28T13:29:47.894Z,20.70
2023-03-28T13:32:47.777Z,21.00
2023-03-28T13:43:48.199Z,20.80
2023-03-28T13:46:20.424Z,19.50
2023-03-28T13:48:55.692Z,19.60
2023-03-28T13:51:28.521Z,19.10
2023-03-28T13:53:56.976Z,18.70
2023-03-28T13:56:27.176Z,19.30
2023-03-28T13:58:58.690Z,20.10
2023-03-28T14:03:00.241Z,20.80
2023-03-28T14:09:58.513Z,20.60
2023-03-28T14:12:30.457Z,20.70
2023-03-28T14:15:02.424Z,20.20
2023-03-28T14:17:36.333Z,19.10
2023-03-28T14:20:07.501Z,18.80
2023-03-28T14:22:49.405Z,19.00
2023-03-28T14:25:27.472Z,18.30
2023-03-28T14:27:57.729Z,18.10
2023-03-28T14:30:29.494Z,17.00
2023-03-28T14:33:00.238Z,17.00
2023-03-28T14:35:31.635Z,16.80
2023-03-28T14:38:01.982Z,16.50
2023-03-28T14:40:34.951Z,16.60
2023-03-28T14:43:06.139Z,16.70
2023-03-28T14:45:38.221Z,16.60
2023-03-28T14:48:10.256Z,16.00
2023-03-28T14:50:40.956Z,16.60
2023-03-28T14:53:19.490Z,17.30
2023-03-28T14:55:51.115Z,17.70
2023-03-28T14:58:25.879Z,18.10
2023-03-28T15:00:56.998Z,18.50
2023-03-28T15:03:35.830Z,19.00
2023-03-28T15:06:05.175Z,19.40
2023-03-28T15:08:39.355Z,19.20
2023-03-28T15:11:17.981Z,19.70
2023-03-28T15:13:48.814Z,19.70
2023-03-28T15:16:23.276Z,19.00
2023-03-28T15:18:58.508Z,18.10
2023-03-28T15:21:27.509Z,18.20
2023-03-28T15:24:01.491Z,17.70
2023-03-28T15:26:39.358Z,17.70
2023-03-28T15:29:10.722Z,17.60
2023-03-28T15:31:40.714Z,18.00
2023-03-28T15:34:11.917Z,17.80
2023-03-28T15:36:52.862Z,18.20
2023-03-28T15:39:31.452Z,18.00
2023-03-28T15:42:29.899Z,17.60
2023-03-28T15:45:30.891Z,17.60
2023-03-28T15:48:02.680Z,17.90
2023-03-28T15:50:36.752Z,17.80
2023-03-28T15:53:08.812Z,17.50
2023-03-28T15:55:37.116Z,17.60
2023-03-28T15:58:07.705Z,17.60
2023-03-28T16:00:43.427Z,17.50
2023-03-28T16:03:34.612Z,17.30
2023-03-28T16:06:30.688Z,17.00
2023-03-28T16:09:16.805Z,16.90
2023-03-28T16:11:48.564Z,17.00
2023-03-28T16:14:37.461Z,16.70
2023-03-28T16:17:25.916Z,16.10
2023-03-28T16:20:15.285Z,16.00
2023-03-28T16:22:43.769Z,15.60
2023-03-28T16:25:12.692Z,15.30
2023-03-28T16:27:42.358Z,15.10
2023-03-28T16:30:19.540Z,15.00
2023-03-28T16:32:48.068Z,14.90
2023-03-28T16:35:16.850Z,14.80
2023-03-28T16:37:45.156Z,14.60
2023-03-28T16:40:14.303Z,14.40
2023-03-28T16:42:42.783Z,14.50
2023-03-28T16:45:13.798Z,14.30
2023-03-28T16:47:42.222Z,14.20
2023-03-28T16:50:11.539Z,13.90
2023-03-28T16:52:40.398Z,13.80
2023-03-28T16:55:11.188Z,13.50
2023-03-28T16:57:39.555Z,13.30
2023-03-28T17:00:14.116Z,13.10
2023-03-28T17:02:44.146Z,12.80
2023-03-28T17:05:12.436Z,12.40
2023-03-28T17:07:40.849Z,12.00
2023-03-28T17:10:11.531Z,11.80
2023-03-28T17:12:39.717Z,11.60
2023-03-28T17:15:09.970Z,11.30
2023-03-28T17:17:38.230Z,11.10
2023-03-28T17:20:09.998Z,10.90
2023-03-28T17:22:38.358Z,10.90
2023-03-28T17:25:08.700Z,10.70
2023-03-28T17:27:37.095Z,10.50
2023-03-28T17:30:07.554Z,10.30
2023-03-28T17:32:36.172Z,10.20
2023-03-28T17:35:04.964Z,10.00
2023-03-28T17:37:34.555Z,9.90
2023-03-28T17:40:03.601Z,9.80
2023-03-28T17:42:31.993Z,9.80
2023-03-28T17:45:00.415Z,9.60
2023-03-28T17:47:28.895Z,9.40
2023-03-28T17:50:00.287Z,9.30
2023-03-28T17:52:30.520Z,9.10
2023-03-28T17:55:00.753Z,9.00
2023-03-28T17:57:29.134Z,8.90
2023-03-28T17:59:57.744Z,8.80
2023-03-28T18:02:26.301Z,8.70
2023-03-28T18:05:08.317Z,8.70
2023-03-28T18:07:37.522Z,8.60
2023-03-28T18:10:10.559Z,8.60
2023-03-28T18:12:39.042Z,8.50
2023-03-28T18:15:08.847Z,8.50
2023-03-28T18:17:37.221Z,8.50
2023-03-28T18:20:08.551Z,8.50
2023-03-28T18:22:38.460Z,8.40
2023-03-28T18:25:09.840Z,8.40
2023-03-28T18:27:38.153Z,8.40
2023-03-28T18:30:08.362Z,8.30
2023-03-28T18:32:37.476Z,8.30
2023-03-28T18:35:07.349Z,8.30
2023-03-28T18:37:36.437Z,8.20
2023-03-28T18:40:26.623Z,8.10
2023-03-28T18:42:55.371Z,8.00
2023-03-28T18:45:23.591Z,7.90
